Time;durP1;ratioP1;P1;durP2;ratioP2;P2;SDS_P1;SDS_P2;PMS_P1;PMS_P2;Temp;Humidity;BMP_temperature;BMP_pressure;BME280_temperature;BME280_humidity;BME280_pressure;Samples;Min_cycle;Max_cycle;Signal;HPM_P1;HPM_P2
2021/04/13 04:11:10;;;;;;;1.50;1.50;;;4.30;99.90;;;;;;5553253;23;20223;-77
2021/04/13 04:13:39;;;;;;;1.40;1.40;;;4.00;99.90;;;;;;4914975;29;20222;-78
2021/04/13 04:16:15;;;;;;;1.67;1.67;;;4.10;99.90;;;;;;4915148;29;20723;-76
2021/04/13 04:18:45;;;;;;;1.20;1.20;;;4.00;99.90;;;;;;4918503;29;20218;-77
2021/04/13 04:21:34;;;;;;;1.20;1.20;;;4.10;99.90;;;;;;4910891;29;20235;-77
2021/04/13 04:24:05;;;;;;;1.20;1.20;;;4.40;99.90;;;;;;4899788;29;20207;-78
2021/04/13 04:26:39;;;;;;;1.20;1.20;;;4.40;99.90;;;;;;4901381;29;20361;-79
2021/04/13 04:29:15;;;;;;;1.23;1.23;;;4.30;99.90;;;;;;4903761;29;20214;-79
2021/04/13 04:31:44;;;;;;;1.10;1.10;;;3.90;99.90;;;;;;4904135;29;20267;-79
2021/04/13 04:35:01;;;;;;;1.20;1.20;;;4.00;99.90;;;;;;4904207;29;20227;-78
2021/04/13 04:37:34;;;;;;;1.20;1.20;;;3.80;99.90;;;;;;4904389;29;20268;-79
2021/04/13 04:40:15;;;;;;;1.17;1.17;;;3.70;99.90;;;;;;4904021;29;20207;-79
2021/04/13 04:42:53;;;;;;;1.30;1.30;;;3.70;99.90;;;;;;4904014;29;20211;-79
2021/04/13 04:45:37;;;;;;;1.27;1.27;;;3.70;99.90;;;;;;4904907;29;20211;-78
2021/04/13 04:48:26;;;;;;;1.37;1.37;;;3.70;99.90;;;;;;4909354;29;20270;-78
2021/04/13 04:50:55;;;;;;;1.20;1.20;;;3.70;99.90;;;;;;4915771;29;20227;-76
2021/04/13 04:53:23;;;;;;;1.20;1.20;;;3.60;99.90;;;;;;4905255;29;20231;-77
2021/04/13 04:55:51;;;;;;;1.13;1.13;;;3.70;99.90;;;;;;4904621;29;20212;-78
2021/04/13 04:58:19;;;;;;;1.27;1.27;;;3.60;99.90;;;;;;4904554;29;20219;-79
2021/04/13 05:00:47;;;;;;;1.30;1.30;;;3.70;99.90;;;;;;4904517;29;20231;-79
2021/04/13 05:03:14;;;;;;;1.10;1.10;;;3.70;99.90;;;;;;4905777;29;20575;-79
2021/04/13 05:05:41;;;;;;;1.27;1.27;;;3.80;99.90;;;;;;4902375;29;20219;-76
2021/04/13 05:08:08;;;;;;;1.30;1.30;;;3.80;99.90;;;;;;4909877;29;20235;-79
2021/04/13 05:10:35;;;;;;;1.20;1.20;;;3.90;99.90;;;;;;4906001;29;20230;-79
2021/04/13 05:13:02;;;;;;;1.20;1.20;;;4.00;99.90;;;;;;4901941;29;20211;-79
2021/04/13 05:15:30;;;;;;;1.27;1.27;;;4.00;99.90;;;;;;4901064;29;20575;-79
2021/04/13 05:17:57;;;;;;;1.33;1.33;;;4.00;99.90;;;;;;4901033;29;20267;-79
2021/04/13 05:20:23;;;;;;;1.23;1.23;;;4.10;99.90;;;;;;4900873;29;20575;-79
2021/04/13 05:22:50;;;;;;;1.40;1.40;;;4.20;99.90;;;;;;4901278;29;20219;-78
2021/04/13 05:25:18;;;;;;;1.10;1.10;;;4.20;99.90;;;;;;4901297;29;20516;-79
2021/04/13 05:27:46;;;;;;;1.20;1.20;;;4.30;99.90;;;;;;4901365;29;20222;-79
2021/04/13 05:30:15;;;;;;;1.20;1.20;;;4.40;99.90;;;;;;4901780;29;20266;-79
2021/04/13 05:32:43;;;;;;;1.20;1.20;;;4.50;99.90;;;;;;4904195;29;20632;-79
2021/04/13 05:35:11;;;;;;;1.20;1.20;;;4.70;99.90;;;;;;4904466;29;20607;-80
2021/04/13 05:37:38;;;;;;;1.13;1.13;;;4.70;99.90;;;;;;4907355;29;20212;-80
2021/04/13 05:40:08;;;;;;;1.13;1.13;;;4.80;99.90;;;;;;4912452;29;20211;-79
2021/04/13 05:42:36;;;;;;;1.20;1.20;;;4.90;99.90;;;;;;4913745;29;20207;-79
2021/04/13 05:45:04;;;;;;;1.20;1.20;;;5.00;99.90;;;;;;4912173;29;20203;-79
2021/04/13 05:47:35;;;;;;;1.37;1.37;;;5.00;99.90;;;;;;4909884;29;20215;-79
2021/04/13 05:50:03;;;;;;;1.20;1.20;;;5.30;99.90;;;;;;4910750;29;20211;-80
2021/04/13 05:52:30;;;;;;;1.20;1.20;;;5.50;99.90;;;;;;4902791;29;20227;-80
2021/04/13 05:55:00;;;;;;;1.10;1.10;;;5.40;99.90;;;;;;4904352;29;20650;-80
2021/04/13 05:57:30;;;;;;;1.10;1.10;;;5.50;99.90;;;;;;4901173;29;20207;-80
2021/04/13 05:59:58;;;;;;;1.10;1.10;;;5.50;99.90;;;;;;4900485;29;20211;-80
2021/04/13 06:02:27;;;;;;;1.20;1.20;;;5.40;99.90;;;;;;4900107;29;20287;-80
2021/04/13 06:04:55;;;;;;;1.10;1.10;;;5.60;99.90;;;;;;4900451;29;20203;-80
2021/04/13 06:07:23;;;;;;;1.07;1.07;;;5.70;99.90;;;;;;4900430;29;20294;-80
2021/04/13 06:09:49;;;;;;;1.10;1.10;;;5.60;99.90;;;;;;4900960;29;20207;-80
2021/04/13 06:12:16;;;;;;;1.20;1.20;;;5.50;99.90;;;;;;4900799;29;20239;-80
2021/04/13 06:14:43;;;;;;;1.13;1.13;;;5.50;99.90;;;;;;4900214;29;20305;-80
2021/04/13 06:17:11;;;;;;;1.13;1.13;;;5.40;99.90;;;;;;4900529;29;20628;-80
2021/04/13 06:19:38;;;;;;;1.37;1.37;;;5.70;99.90;;;;;;4900446;29;20670;-80
2021/04/13 06:22:05;;;;;;;1.30;1.30;;;5.60;99.90;;;;;;4900998;29;20231;-80
2021/04/13 06:24:33;;;;;;;1.20;1.20;;;5.60;99.90;;;;;;4900801;29;20203;-81
2021/04/13 06:27:00;;;;;;;1.03;1.03;;;5.60;99.90;;;;;;4901738;29;20217;-81
2021/04/13 06:29:34;;;;;;;1.13;1.13;;;5.30;99.90;;;;;;4901705;29;20204;-81
2021/04/13 06:32:01;;;;;;;1.40;1.40;;;5.50;99.90;;;;;;4900837;29;20653;-80
2021/04/13 06:34:28;;;;;;;1.37;1.37;;;5.60;99.90;;;;;;4900055;29;20249;-78
2021/04/13 06:36:56;;;;;;;1.20;1.20;;;5.70;99.90;;;;;;4900613;29;20632;-80
2021/04/13 06:39:23;;;;;;;1.20;1.20;;;5.80;99.90;;;;;;4900010;29;20215;-80
2021/04/13 06:42:03;;;;;;;1.33;1.33;;;5.70;99.90;;;;;;4899236;29;20278;-81
2021/04/13 06:45:03;;;;;;;1.10;1.10;;;5.80;99.90;;;;;;4899531;29;20658;-79
2021/04/13 06:48:07;;;;;;;1.07;1.07;;;6.00;99.90;;;;;;4901574;29;20306;-79
2021/04/13 06:50:47;;;;;;;1.23;1.23;;;6.00;99.90;;;;;;4901008;29;20708;-79
2021/04/13 06:53:26;;;;;;;1.37;1.37;;;6.00;99.90;;;;;;4900837;29;20217;-79
2021/04/13 06:56:13;;;;;;;1.20;1.20;;;5.70;99.90;;;;;;4903698;29;20203;-79
2021/04/13 06:58:58;;;;;;;1.30;1.30;;;5.70;99.90;;;;;;4905687;29;20207;-79
2021/04/13 07:01:29;;;;;;;1.20;1.20;;;5.70;99.90;;;;;;4902708;29;20227;-79
2021/04/13 07:04:02;;;;;;;1.10;1.10;;;5.80;99.90;;;;;;4901293;29;20203;-79
2021/04/13 07:06:38;;;;;;;1.10;1.10;;;6.10;99.90;;;;;;4902174;29;20222;-79
2021/04/13 07:09:13;;;;;;;1.10;1.10;;;6.00;99.90;;;;;;4901989;29;20206;-78
2021/04/13 07:11:44;;;;;;;1.27;1.27;;;6.00;99.90;;;;;;4912732;29;20294;-79
2021/04/13 07:14:19;;;;;;;1.10;1.10;;;5.90;99.90;;;;;;4914937;29;20238;-80
2021/04/13 07:16:53;;;;;;;1.33;1.33;;;6.00;99.90;;;;;;4914861;29;20235;-80
2021/04/13 07:19:24;;;;;;;1.20;1.20;;;6.20;99.90;;;;;;4912505;29;20579;-79
2021/04/13 07:21:59;;;;;;;1.27;1.27;;;6.00;99.90;;;;;;4897906;29;20262;-80
2021/04/13 07:24:30;;;;;;;1.10;1.10;;;6.10;99.90;;;;;;4897924;29;20251;-79
2021/04/13 07:27:05;;;;;;;1.30;1.30;;;6.40;99.90;;;;;;4897904;29;20211;-79
2021/04/13 07:29:39;;;;;;;1.20;1.20;;;6.30;99.90;;;;;;4898752;29;20206;-78
2021/04/13 07:32:10;;;;;;;1.20;1.20;;;6.10;99.90;;;;;;4899165;29;20235;-78
2021/04/13 07:34:41;;;;;;;1.20;1.20;;;6.10;99.90;;;;;;4898246;29;20231;-80
2021/04/13 07:37:16;;;;;;;1.20;1.20;;;6.10;99.90;;;;;;4898499;29;20238;-80
2021/04/13 07:39:46;;;;;;;1.07;1.07;;;6.20;99.90;;;;;;4898213;29;20240;-79
2021/04/13 07:42:20;;;;;;;1.00;1.00;;;6.50;99.90;;;;;;4897635;29;20705;-80
2021/04/13 07:45:05;;;;;;;1.10;1.10;;;6.70;99.90;;;;;;4897803;29;20215;-80
2021/04/13 07:48:04;;;;;;;1.10;1.10;;;6.90;99.90;;;;;;4897780;29;20675;-79
2021/04/13 07:50:39;;;;;;;1.13;1.13;;;6.90;99.90;;;;;;4897546;29;20234;-80
2021/04/13 07:53:16;;;;;;;1.07;1.07;;;6.80;99.90;;;;;;4899841;29;20732;-81
2021/04/13 07:55:51;;;;;;;1.37;1.37;;;6.90;99.90;;;;;;4901637;29;20254;-81
2021/04/13 07:58:35;;;;;;;1.00;1.00;;;7.20;99.90;;;;;;4902829;29;20195;-80
2021/04/13 08:01:07;;;;;;;1.10;1.10;;;7.40;99.90;;;;;;4904652;29;20251;-81
2021/04/13 08:03:35;;;;;;;1.00;1.00;;;7.30;99.90;;;;;;4904321;29;20192;-80
2021/04/13 08:06:05;;;;;;;1.20;1.20;;;7.10;99.90;;;;;;4902153;29;20207;-80
2021/04/13 08:08:34;;;;;;;1.10;1.10;;;6.90;99.90;;;;;;4902148;29;20218;-79
2021/04/13 08:11:10;;;;;;;1.10;1.10;;;6.80;99.90;;;;;;4903204;29;20650;-80
2021/04/13 08:13:39;;;;;;;1.27;1.27;;;6.90;99.90;;;;;;4902220;29;20211;-81
2021/04/13 08:16:09;;;;;;;1.20;1.20;;;7.10;99.90;;;;;;4901432;29;20212;-79
2021/04/13 08:18:39;;;;;;;1.00;1.00;;;7.10;99.90;;;;;;4902531;29;20633;-80
2021/04/13 08:21:16;;;;;;;1.13;1.13;;;6.70;99.90;;;;;;4901587;29;20710;-81
2021/04/13 08:23:43;;;;;;;1.10;1.10;;;6.80;99.90;;;;;;4901814;29;20255;-79
2021/04/13 08:26:42;;;;;;;1.00;1.00;;;7.10;99.90;;;;;;4902235;29;20259;-80
2021/04/13 08:29:24;;;;;;;1.10;1.10;;;6.90;99.90;;;;;;4902530;29;20684;-79
2021/04/13 08:34:56;;;;;;;1.00;1.00;;;7.10;99.90;;;;;;4901629;29;20231;-79
2021/04/13 08:37:31;;;;;;;1.10;1.10;;;7.40;99.90;;;;;;4902679;29;20271;-80
2021/04/13 08:40:14;;;;;;;1.20;1.20;;;7.50;99.90;;;;;;4902999;29;20247;-80
2021/04/13 08:42:47;;;;;;;1.17;1.17;;;7.60;99.90;;;;;;4904363;29;20231;-81
2021/04/13 08:45:22;;;;;;;0.87;0.87;;;7.90;99.90;;;;;;4909466;29;20688;-80
2021/04/13 08:47:54;;;;;;;1.10;1.10;;;7.80;99.90;;;;;;4901547;29;20206;-81
2021/04/13 08:50:36;;;;;;;1.00;1.00;;;7.60;99.90;;;;;;4902375;29;20208;-80
2021/04/13 08:53:06;;;;;;;1.00;1.00;;;7.80;99.90;;;;;;4902611;29;20214;-80
2021/04/13 08:55:47;;;;;;;1.10;1.10;;;8.00;99.90;;;;;;4902335;29;20282;-79
2021/04/13 08:58:26;;;;;;;0.93;0.93;;;7.80;99.90;;;;;;4903433;29;20274;-80
2021/04/13 09:00:56;;;;;;;0.93;0.93;;;7.60;99.90;;;;;;4901401;29;20231;-81
2021/04/13 09:03:27;;;;;;;1.00;1.00;;;7.60;99.90;;;;;;4901183;29;20203;-80
2021/04/13 09:06:12;;;;;;;1.10;1.10;;;7.70;99.90;;;;;;4901364;29;20286;-81
2021/04/13 09:08:51;;;;;;;1.10;1.10;;;8.00;99.60;;;;;;4901859;29;20617;-81
2021/04/13 09:11:25;;;;;;;1.17;1.17;;;8.00;99.00;;;;;;4901331;29;20241;-80
2021/04/13 09:14:02;;;;;;;1.17;1.17;;;8.00;99.40;;;;;;4901649;29;20278;-80
2021/04/13 09:16:32;;;;;;;1.07;1.07;;;7.80;98.80;;;;;;4900634;29;20203;-81
2021/04/13 09:19:06;;;;;;;0.90;0.90;;;7.80;98.90;;;;;;4903422;29;20207;-80
2021/04/13 09:21:40;;;;;;;1.03;1.03;;;8.10;98.00;;;;;;4902179;29;20227;-81
2021/04/13 09:24:14;;;;;;;0.90;0.90;;;8.40;97.90;;;;;;4901216;29;20211;-82
2021/04/13 09:26:45;;;;;;;1.17;1.17;;;8.20;97.60;;;;;;4906225;29;20203;-80
2021/04/13 09:29:37;;;;;;;1.03;1.03;;;8.00;98.20;;;;;;4906274;29;20239;-80
2021/04/13 09:32:07;;;;;;;1.20;1.20;;;7.80;97.50;;;;;;4904670;29;20235;-81
2021/04/13 09:35:04;;;;;;;1.20;1.20;;;7.50;97.30;;;;;;4905727;29;20673;-80
2021/04/13 09:37:42;;;;;;;1.23;1.23;;;7.20;98.30;;;;;;4906269;29;20211;-81
2021/04/13 09:40:40;;;;;;;1.30;1.30;;;7.50;98.00;;;;;;4903638;29;20733;-81
2021/04/13 09:43:19;;;;;;;0.90;0.90;;;7.70;98.30;;;;;;4900708;29;20211;-81
2021/04/13 09:46:01;;;;;;;1.17;1.17;;;7.70;97.70;;;;;;4900996;29;20203;-80
2021/04/13 09:48:52;;;;;;;1.17;1.17;;;7.80;97.00;;;;;;4901099;29;20739;-80
2021/04/13 09:51:26;;;;;;;1.20;1.20;;;8.00;97.30;;;;;;4903720;29;20231;-81
2021/04/13 09:54:19;;;;;;;0.93;0.93;;;7.90;97.20;;;;;;4902782;29;20191;-80
2021/04/13 09:57:06;;;;;;;1.07;1.07;;;8.20;97.00;;;;;;4900353;29;20211;-80
2021/04/13 10:00:04;;;;;;;1.00;1.00;;;8.40;95.10;;;;;;4889719;29;20203;-81
2021/04/13 10:02:50;;;;;;;1.20;1.20;;;8.20;94.50;;;;;;4902305;29;20227;-81
2021/04/13 10:05:19;;;;;;;1.20;1.20;;;8.10;93.10;;;;;;4901196;29;20213;-81
2021/04/13 10:07:56;;;;;;;1.10;1.10;;;8.00;94.60;;;;;;4901210;29;20211;-81
2021/04/13 10:10:27;;;;;;;1.00;1.00;;;8.20;99.90;;;;;;4900417;29;20199;-81
2021/04/13 10:13:23;;;;;;;1.20;1.20;;;8.00;94.80;;;;;;4901999;29;20243;-79
2021/04/13 10:16:05;;;;;;;0.90;0.90;;;8.00;94.40;;;;;;4900681;29;20232;-80
2021/04/13 10:18:56;;;;;;;1.13;1.13;;;8.10;93.50;;;;;;4902224;29;20211;-80
2021/04/13 10:21:43;;;;;;;1.20;1.20;;;8.30;92.90;;;;;;4901260;29;20285;-79
2021/04/13 10:24:39;;;;;;;1.20;1.20;;;8.30;93.00;;;;;;4903830;29;20204;-81
2021/04/13 10:27:51;;;;;;;1.03;1.03;;;8.40;93.30;;;;;;4905955;29;20215;-80
2021/04/13 10:30:44;;;;;;;1.00;1.00;;;8.00;98.00;;;;;;4874632;29;20574;-80
2021/04/13 10:33:36;;;;;;;1.10;1.10;;;8.20;90.60;;;;;;4893558;29;20207;-81
2021/04/13 10:36:42;;;;;;;0.90;0.90;;;8.50;91.40;;;;;;4900270;29;20318;-81
2021/04/13 10:39:39;;;;;;;1.00;1.00;;;8.20;92.50;;;;;;4842267;29;20590;-80
2021/04/13 10:42:48;;;;;;;1.00;1.00;;;8.40;92.30;;;;;;4843078;29;20285;-81
2021/04/13 10:45:39;;;;;;;1.00;1.00;;;8.60;88.60;;;;;;4847647;29;20241;-80
2021/04/13 10:48:53;;;;;;;0.93;0.93;;;8.90;86.00;;;;;;4901988;29;20212;-81
2021/04/13 10:51:57;;;;;;;0.97;0.97;;;8.70;86.60;;;;;;4901456;29;20231;-81
2021/04/13 10:55:03;;;;;;;1.00;1.00;;;8.20;90.00;;;;;;4901310;29;20282;-81
2021/04/13 10:58:09;;;;;;;1.03;1.03;;;8.10;90.20;;;;;;4896820;29;20211;-80
2021/04/13 11:00:50;;;;;;;1.00;1.00;;;8.30;90.00;;;;;;4902074;29;20230;-80
2021/04/13 11:03:58;;;;;;;0.90;0.90;;;8.30;90.00;;;;;;4902351;29;20211;-81
2021/04/13 11:06:56;;;;;;;0.90;0.90;;;8.20;88.60;;;;;;4902224;29;20203;-81
2021/04/13 11:09:52;;;;;;;1.03;1.03;;;8.40;88.10;;;;;;4902093;29;20208;-81
2021/04/13 11:12:43;;;;;;;0.97;0.97;;;8.60;87.50;;;;;;4901835;29;20239;-81
2021/04/13 11:15:39;;;;;;;1.10;1.10;;;8.80;87.00;;;;;;4901906;29;20686;-81
2021/04/13 11:18:20;;;;;;;0.80;0.80;;;9.20;87.90;;;;;;4902596;29;20204;-81
2021/04/13 11:21:12;;;;;;;1.10;1.10;;;9.10;86.80;;;;;;4899875;29;20231;-80
2021/04/13 11:24:19;;;;;;;0.90;0.90;;;9.10;80.20;;;;;;4899823;29;20214;-80
2021/04/13 11:27:27;;;;;;;1.00;1.00;;;9.20;80.50;;;;;;4901071;29;20211;-80
2021/04/13 11:30:28;;;;;;;1.00;1.00;;;9.10;81.60;;;;;;4903418;29;20207;-81
2021/04/13 11:33:34;;;;;;;0.95;0.95;;;9.10;83.60;;;;;;4903753;29;20203;-80
2021/04/13 11:36:09;;;;;;;0.90;0.90;;;9.00;86.60;;;;;;4905137;29;20218;-81
2021/04/13 11:38:50;;;;;;;1.00;1.00;;;8.70;86.10;;;;;;4907122;29;20467;-80
2021/04/13 11:41:41;;;;;;;0.90;0.90;;;9.10;83.90;;;;;;4907343;29;20279;-81
2021/04/13 11:44:15;;;;;;;0.90;0.90;;;9.30;83.10;;;;;;4906020;29;20207;-81
2021/04/13 11:46:52;;;;;;;0.80;0.80;;;9.60;84.30;;;;;;4904442;29;20215;-81
2021/04/13 11:49:31;;;;;;;0.90;0.90;;;9.80;83.10;;;;;;4901217;29;20677;-81
2021/04/13 11:52:04;;;;;;;0.88;0.88;;;9.90;82.50;;;;;;4903481;29;20227;-81
2021/04/13 11:54:47;;;;;;;1.00;1.00;;;9.60;80.60;;;;;;4903002;29;20219;-80
2021/04/13 11:57:17;;;;;;;1.10;1.10;;;9.20;82.10;;;;;;4907099;29;20207;-81
2021/04/13 12:00:25;;;;;;;1.05;1.05;;;9.10;84.70;;;;;;4910958;29;20203;-81
2021/04/13 12:03:20;;;;;;;0.90;0.90;;;9.50;85.60;;;;;;4910362;29;20207;-81
2021/04/13 12:05:49;;;;;;;1.00;1.00;;;9.90;80.00;;;;;;4900585;29;20231;-80
2021/04/13 12:08:48;;;;;;;0.80;0.80;;;9.90;76.90;;;;;;4906025;29;20699;-82
2021/04/13 12:11:18;;;;;;;0.85;0.85;;;10.00;77.80;;;;;;4902097;29;20640;-80
2021/04/13 12:13:47;;;;;;;0.90;0.90;;;10.10;77.00;;;;;;4902902;29;20673;-80
2021/04/13 12:16:19;;;;;;;0.90;0.90;;;9.90;77.20;;;;;;4903112;29;20228;-81
2021/04/13 12:19:11;;;;;;;0.85;0.85;;;9.70;77.90;;;;;;4904211;29;20264;-81
2021/04/13 12:21:59;;;;;;;1.00;1.00;;;9.50;79.70;;;;;;4903749;29;20234;-82
2021/04/13 12:24:53;;;;;;;1.10;1.10;;;9.40;78.20;;;;;;4903889;29;20203;-82
2021/04/13 12:27:43;;;;;;;1.00;1.00;;;9.20;77.00;;;;;;4903861;29;20559;-81
2021/04/13 12:30:56;;;;;;;1.00;1.00;;;9.50;81.40;;;;;;4903897;29;20518;-81
2021/04/13 12:33:58;;;;;;;1.07;1.07;;;9.30;74.70;;;;;;4846747;29;20217;-81
2021/04/13 12:36:54;;;;;;;1.00;1.00;;;9.50;74.50;;;;;;4846574;29;20566;-80
2021/04/13 12:39:51;;;;;;;1.07;1.07;;;9.40;75.90;;;;;;4903309;29;20207;-82
2021/04/13 12:42:47;;;;;;;1.10;1.10;;;9.00;77.90;;;;;;4905852;29;20602;-81
2021/04/13 12:45:52;;;;;;;1.00;1.00;;;9.00;78.50;;;;;;4903392;29;20733;-82
2021/04/13 12:48:28;;;;;;;0.90;0.90;;;9.20;77.70;;;;;;4903485;29;20207;-81
2021/04/13 12:51:16;;;;;;;0.90;0.90;;;9.30;79.10;;;;;;4903976;29;20223;-81
2021/04/13 12:53:43;;;;;;;1.20;1.20;;;9.30;80.20;;;;;;4904294;29;20630;-82
2021/04/13 12:56:12;;;;;;;1.03;1.03;;;9.50;78.10;;;;;;4904003;29;20219;-81
2021/04/13 12:58:41;;;;;;;0.90;0.90;;;9.60;78.90;;;;;;4903663;29;20211;-82
2021/04/13 13:01:17;;;;;;;0.98;0.98;;;9.70;79.40;;;;;;4905878;29;20252;-81
2021/04/13 13:03:44;;;;;;;1.00;1.00;;;9.80;80.10;;;;;;4907174;29;20210;-82
2021/04/13 13:06:21;;;;;;;1.00;1.00;;;10.00;80.00;;;;;;4905132;29;20618;-83
2021/04/13 13:08:57;;;;;;;0.90;0.90;;;10.10;80.60;;;;;;4907384;29;20239;-80
2021/04/13 13:11:25;;;;;;;0.80;0.80;;;10.20;79.70;;;;;;4908557;29;20235;-81
2021/04/13 13:13:52;;;;;;;1.00;1.00;;;9.80;79.60;;;;;;4911230;29;20235;-80
2021/04/13 13:16:39;;;;;;;0.90;0.90;;;9.70;81.60;;;;;;4908885;29;20218;-79
2021/04/13 13:19:06;;;;;;;1.10;1.10;;;9.90;78.80;;;;;;4909574;29;20207;-81
2021/04/13 13:21:49;;;;;;;1.00;1.00;;;9.90;76.60;;;;;;4905714;29;20227;-80
2021/04/13 13:24:20;;;;;;;0.80;0.80;;;9.90;75.60;;;;;;4902456;29;20337;-81
2021/04/13 13:26:47;;;;;;;0.98;0.98;;;10.00;75.60;;;;;;4903450;29;20625;-80
2021/04/13 13:29:14;;;;;;;0.80;0.80;;;9.90;75.20;;;;;;4906848;29;20203;-80
2021/04/13 13:31:43;;;;;;;0.80;0.80;;;10.20;76.30;;;;;;4902350;29;20234;-79
2021/04/13 13:34:15;;;;;;;0.80;0.80;;;10.50;76.20;;;;;;4901965;29;20211;-81
2021/04/13 13:36:44;;;;;;;0.80;0.80;;;10.70;73.10;;;;;;4900559;29;20642;-81
2021/04/13 13:39:14;;;;;;;0.80;0.80;;;10.40;72.00;;;;;;4900298;29;20207;-80
2021/04/13 13:41:44;;;;;;;0.90;0.90;;;10.00;74.60;;;;;;4900125;29;20278;-80
2021/04/13 13:44:23;;;;;;;1.10;1.10;;;9.60;74.00;;;;;;4899152;29;20207;-80
2021/04/13 13:47:00;;;;;;;0.90;0.90;;;9.50;74.10;;;;;;4899909;29;20211;-81
2021/04/13 13:49:36;;;;;;;1.00;1.00;;;9.40;72.10;;;;;;4899533;29;20242;-80
2021/04/13 13:52:06;;;;;;;0.80;0.80;;;9.20;73.20;;;;;;4898896;29;20223;-81
2021/04/13 13:54:34;;;;;;;0.80;0.80;;;9.50;74.30;;;;;;4899356;29;20677;-81
2021/04/13 13:57:17;;;;;;;0.90;0.90;;;9.70;74.40;;;;;;4898113;29;20480;-80
2021/04/13 13:59:47;;;;;;;1.05;1.05;;;9.60;74.10;;;;;;4897990;29;20196;-82
2021/04/13 14:02:28;;;;;;;0.80;0.80;;;9.80;72.50;;;;;;4898419;29;20250;-79
2021/04/13 14:05:19;;;;;;;0.90;0.90;;;9.70;73.20;;;;;;4898042;29;20184;-79
2021/04/13 14:07:46;;;;;;;0.80;0.80;;;9.70;73.80;;;;;;4899391;29;20195;-79
2021/04/13 14:10:24;;;;;;;0.90;0.90;;;9.40;90.90;;;;;;4899296;29;20199;-78
2021/04/13 14:12:50;;;;;;;1.00;1.00;;;9.40;75.40;;;;;;4900135;29;20615;-79
2021/04/13 14:15:29;;;;;;;0.90;0.90;;;9.70;75.10;;;;;;4906523;29;20223;-83
2021/04/13 14:18:22;;;;;;;0.90;0.90;;;9.60;76.40;;;;;;4898732;29;20206;-80
2021/04/13 14:21:01;;;;;;;0.90;0.90;;;9.50;76.30;;;;;;4898900;29;20223;-79
2021/04/13 14:23:29;;;;;;;0.90;0.90;;;9.50;77.60;;;;;;4890101;29;20260;-81
2021/04/13 14:25:56;;;;;;;0.90;0.90;;;9.70;77.00;;;;;;4897386;29;20194;-81
2021/04/13 14:28:25;;;;;;;1.00;1.00;;;9.80;75.90;;;;;;4905252;29;20239;-81
2021/04/13 14:30:53;;;;;;;0.80;0.80;;;9.60;77.70;;;;;;4924460;29;20238;-82
2021/04/13 14:33:22;;;;;;;0.82;0.82;;;10.00;77.80;;;;;;4914020;29;20211;-81
2021/04/13 14:35:50;;;;;;;0.80;0.80;;;9.90;76.60;;;;;;4908157;29;20249;-80
2021/04/13 14:38:19;;;;;;;0.90;0.90;;;9.90;78.00;;;;;;4907105;29;20207;-81
2021/04/13 14:40:47;;;;;;;0.80;0.80;;;9.90;75.90;;;;;;4903403;29;20227;-82
2021/04/13 14:43:14;;;;;;;0.93;0.93;;;9.70;76.50;;;;;;4902735;29;20703;-81
2021/04/13 14:45:41;;;;;;;1.00;1.00;;;9.60;78.20;;;;;;4901968;29;20199;-81
2021/04/13 14:48:13;;;;;;;0.90;0.90;;;9.20;80.50;;;;;;4902236;29;20203;-81
2021/04/13 14:50:43;;;;;;;0.88;0.88;;;9.20;82.90;;;;;;4901664;29;20282;-81
2021/04/13 14:53:11;;;;;;;0.88;0.88;;;9.10;84.80;;;;;;4902134;29;20195;-81
2021/04/13 14:55:38;;;;;;;0.90;0.90;;;9.10;83.70;;;;;;4901918;29;20685;-80
2021/04/13 14:58:07;;;;;;;0.87;0.87;;;9.10;84.60;;;;;;4901117;29;20298;-81
2021/04/13 15:00:35;;;;;;;0.90;0.90;;;9.10;84.30;;;;;;4898849;29;20231;-81
2021/04/13 15:03:03;;;;;;;1.10;1.10;;;9.00;83.90;;;;;;4901147;29;20299;-81
2021/04/13 15:05:30;;;;;;;0.80;0.80;;;9.10;83.10;;;;;;4900311;29;20206;-82
2021/04/13 15:07:59;;;;;;;0.90;0.90;;;9.40;83.30;;;;;;4900906;29;20215;-81
2021/04/13 15:10:29;;;;;;;0.80;0.80;;;10.10;92.70;;;;;;4900292;29;20199;-81
2021/04/13 15:12:56;;;;;;;0.98;0.98;;;10.20;79.30;;;;;;4901628;29;20212;-81
2021/04/13 15:15:24;;;;;;;0.75;0.75;;;10.20;76.90;;;;;;4899521;29;20236;-80
2021/04/13 15:17:51;;;;;;;0.70;0.70;;;10.40;76.20;;;;;;4900384;29;20839;-80
2021/04/13 15:20:22;;;;;;;0.80;0.80;;;10.20;91.30;;;;;;4900466;29;20657;-81
2021/04/13 15:22:50;;;;;;;0.90;0.90;;;10.20;76.10;;;;;;4899095;29;20203;-80
2021/04/13 15:25:19;;;;;;;0.80;0.80;;;10.20;75.90;;;;;;4892850;29;20738;-81
2021/04/13 15:27:54;;;;;;;0.90;0.90;;;9.90;77.30;;;;;;4899859;29;20237;-80
2021/04/13 15:30:22;;;;;;;0.90;0.90;;;9.50;92.80;;;;;;4901048;29;20199;-81
2021/04/13 15:32:49;;;;;;;0.90;0.90;;;9.50;80.10;;;;;;4900708;29;20259;-83
2021/04/13 15:35:24;;;;;;;0.80;0.80;;;9.70;80.40;;;;;;4897924;29;20681;-81
2021/04/13 15:37:52;;;;;;;0.90;0.90;;;9.80;76.90;;;;;;4900495;29;20211;-81
2021/04/13 15:40:23;;;;;;;0.90;0.90;;;9.80;91.80;;;;;;4901600;29;20203;-80
2021/04/13 15:42:55;;;;;;;0.80;0.80;;;9.70;77.50;;;;;;4900753;29;20275;-80
2021/04/13 15:45:30;;;;;;;0.83;0.83;;;9.50;77.90;;;;;;4901641;29;20199;-81
2021/04/13 15:48:04;;;;;;;1.03;1.03;;;9.20;79.70;;;;;;4900184;29;20219;-81
2021/04/13 15:50:31;;;;;;;0.80;0.80;;;9.30;79.40;;;;;;4900644;29;20259;-81
2021/04/13 15:52:58;;;;;;;0.80;0.80;;;9.20;79.80;;;;;;4901004;29;20298;-82
2021/04/13 15:55:26;;;;;;;0.80;0.80;;;9.30;80.90;;;;;;4900653;29;20226;-81
2021/04/13 15:57:54;;;;;;;0.90;0.90;;;9.40;81.20;;;;;;4901120;29;20263;-82
2021/04/13 16:00:21;;;;;;;0.90;0.90;;;9.60;92.60;;;;;;4900402;29;20208;-81
2021/04/13 16:02:48;;;;;;;0.80;0.80;;;9.40;79.70;;;;;;4901604;29;20227;-82
2021/04/13 16:05:15;;;;;;;0.80;0.80;;;9.30;78.50;;;;;;4901373;29;20207;-82
2021/04/13 16:07:43;;;;;;;0.80;0.80;;;9.20;78.80;;;;;;4898115;29;20231;-82
2021/04/13 16:10:11;;;;;;;0.98;0.98;;;9.40;78.80;;;;;;4898242;29;20199;-78
2021/04/13 16:12:45;;;;;;;0.90;0.90;;;9.40;79.10;;;;;;4898517;29;20621;-79
2021/04/13 16:15:13;;;;;;;0.90;0.90;;;9.30;76.40;;;;;;4899620;29;20218;-83
2021/04/13 16:17:40;;;;;;;0.90;0.90;;;9.30;77.70;;;;;;4902321;29;20267;-81
2021/04/13 16:20:09;;;;;;;0.80;0.80;;;9.30;77.60;;;;;;4902348;29;20279;-81
2021/04/13 16:22:36;;;;;;;0.97;0.97;;;9.40;77.30;;;;;;4902302;29;20199;-80
2021/04/13 16:25:04;;;;;;;0.87;0.87;;;9.20;77.80;;;;;;4902028;29;20207;-82
2021/04/13 16:27:31;;;;;;;0.90;0.90;;;9.30;78.20;;;;;;4896502;29;20211;-82
2021/04/13 16:29:59;;;;;;;0.90;0.90;;;9.10;80.00;;;;;;4922094;29;20211;-82
2021/04/13 16:32:28;;;;;;;0.90;0.90;;;9.10;79.50;;;;;;4923433;29;20238;-82
2021/04/13 16:34:58;;;;;;;1.10;1.10;;;9.10;80.40;;;;;;4926078;29;20207;-79
2021/04/13 16:37:29;;;;;;;0.90;0.90;;;8.90;80.80;;;;;;4927535;29;20207;-79
2021/04/13 16:40:05;;;;;;;0.70;0.70;;;8.90;82.30;;;;;;4921806;29;20672;-79
2021/04/13 16:42:37;;;;;;;0.80;0.80;;;8.90;83.50;;;;;;4921309;29;20230;-76
2021/04/13 16:45:09;;;;;;;0.80;0.80;;;8.70;85.40;;;;;;4910050;29;20208;-78
2021/04/13 16:47:39;;;;;;;0.97;0.97;;;8.60;85.80;;;;;;4902159;29;20255;-78
2021/04/13 16:50:09;;;;;;;0.87;0.87;;;8.50;87.40;;;;;;4897107;29;20200;-76
2021/04/13 16:52:40;;;;;;;0.80;0.80;;;8.60;87.10;;;;;;4900210;29;20211;-78
2021/04/13 16:55:10;;;;;;;0.90;0.90;;;8.60;87.20;;;;;;4904110;29;20228;-78
2021/04/13 16:57:38;;;;;;;0.90;0.90;;;8.70;86.40;;;;;;4903242;29;20203;-79
2021/04/13 17:00:10;;;;;;;1.00;1.00;;;8.60;86.70;;;;;;4903927;29;20195;-79
2021/04/13 17:02:49;;;;;;;1.00;1.00;;;8.40;86.00;;;;;;4902933;29;20196;-78
2021/04/13 17:05:23;;;;;;;1.00;1.00;;;8.40;85.70;;;;;;4901179;29;20199;-80
2021/04/13 17:07:57;;;;;;;1.03;1.03;;;8.40;86.60;;;;;;4906963;29;20199;-80
2021/04/13 17:10:27;;;;;;;0.90;0.90;;;8.40;95.90;;;;;;4911271;29;20213;-79
2021/04/13 17:13:08;;;;;;;0.90;0.90;;;8.40;86.30;;;;;;4913723;29;20219;-80
2021/04/13 17:15:38;;;;;;;1.00;1.00;;;8.60;85.60;;;;;;4930479;29;20656;-80
2021/04/13 17:18:07;;;;;;;1.10;1.10;;;8.70;85.10;;;;;;4920223;29;20199;-78
2021/04/13 17:20:36;;;;;;;0.90;0.90;;;8.70;84.40;;;;;;4912349;29;20219;-80
2021/04/13 17:23:07;;;;;;;1.00;1.00;;;8.60;84.80;;;;;;4913274;29;20212;-79
2021/04/13 17:25:37;;;;;;;1.00;1.00;;;8.50;85.00;;;;;;4912510;29;20207;-80
2021/04/13 17:28:08;;;;;;;0.97;0.97;;;8.60;84.20;;;;;;4911481;29;20204;-79
2021/04/13 17:30:38;;;;;;;1.20;1.20;;;8.60;84.40;;;;;;4912178;29;20251;-80
2021/04/13 17:33:07;;;;;;;0.90;0.90;;;8.60;84.30;;;;;;4912827;29;20207;-79
2021/04/13 17:35:36;;;;;;;0.97;0.97;;;8.50;84.80;;;;;;4912317;29;20215;-79
2021/04/13 17:38:11;;;;;;;1.00;1.00;;;8.50;85.40;;;;;;4912790;29;20230;-80
2021/04/13 17:40:41;;;;;;;0.83;0.83;;;8.40;85.70;;;;;;4911917;29;20242;-79
2021/04/13 17:43:17;;;;;;;1.00;1.00;;;8.40;85.60;;;;;;4908870;29;20626;-79
2021/04/13 17:45:46;;;;;;;0.80;0.80;;;8.40;86.30;;;;;;4908478;29;20199;-79
2021/04/13 17:48:16;;;;;;;1.10;1.10;;;8.50;85.70;;;;;;4909985;29;20286;-78
2021/04/13 17:50:45;;;;;;;1.20;1.20;;;8.40;85.10;;;;;;4907913;29;20227;-79
2021/04/13 17:53:18;;;;;;;1.00;1.00;;;8.30;86.30;;;;;;4909041;29;20761;-79
2021/04/13 17:55:50;;;;;;;0.90;0.90;;;8.20;86.50;;;;;;4908985;29;20207;-79